sensor_id;sensor_type;location;lat;lon;timestamp;P1;durP1;ratioP1;P2;durP2;ratioP2
68072;SDS011;54862;51.502;7.446;2022-08-04T00:00:13;6.53;;;2.22;;
68072;SDS011;54862;51.502;7.446;2022-08-04T00:02:42;4.82;;;2.17;;
68072;SDS011;54862;51.502;7.446;2022-08-04T00:07:43;5.30;;;2.10;;
68072;SDS011;54862;51.502;7.446;2022-08-04T00:10:13;10.27;;;2.55;;
68072;SDS011;54862;51.502;7.446;2022-08-04T00:12:42;8.82;;;2.42;;
68072;SDS011;54862;51.502;7.446;2022-08-04T00:15:13;8.80;;;2.35;;
68072;SDS011;54862;51.502;7.446;2022-08-04T00:17:40;8.30;;;2.30;;
68072;SDS011;54862;51.502;7.446;2022-08-04T00:20:09;6.70;;;2.28;;
68072;SDS011;54862;51.502;7.446;2022-08-04T00:22:38;6.82;;;2.20;;
68072;SDS011;54862;51.502;7.446;2022-08-04T00:25:05;5.28;;;2.08;;
68072;SDS011;54862;51.502;7.446;2022-08-04T00:27:31;8.43;;;2.28;;
68072;SDS011;54862;51.502;7.446;2022-08-04T00:29:58;7.32;;;2.53;;
68072;SDS011;54862;51.502;7.446;2022-08-04T00:32:27;7.95;;;2.25;;
68072;SDS011;54862;51.502;7.446;2022-08-04T00:34:56;7.18;;;2.30;;
68072;SDS011;54862;51.502;7.446;2022-08-04T00:37:23;6.00;;;2.30;;
68072;SDS011;54862;51.502;7.446;2022-08-04T00:39:50;9.60;;;2.60;;
68072;SDS011;54862;51.502;7.446;2022-08-04T00:43:05;9.13;;;2.40;;
68072;SDS011;54862;51.502;7.446;2022-08-04T00:50:10;8.45;;;2.00;;
68072;SDS011;54862;51.502;7.446;2022-08-04T01:00:25;6.05;;;2.05;;
68072;SDS011;54862;51.502;7.446;2022-08-04T01:03:08;5.72;;;2.10;;
68072;SDS011;54862;51.502;7.446;2022-08-04T01:13:31;6.53;;;2.15;;
68072;SDS011;54862;51.502;7.446;2022-08-04T01:16:03;6.82;;;2.72;;
68072;SDS011;54862;51.502;7.446;2022-08-04T01:18:54;8.32;;;2.38;;
68072;SDS011;54862;51.502;7.446;2022-08-04T01:29:08;6.43;;;2.17;;
68072;SDS011;54862;51.502;7.446;2022-08-04T01:34:04;5.30;;;2.10;;
68072;SDS011;54862;51.502;7.446;2022-08-04T01:36:32;8.20;;;2.60;;
68072;SDS011;54862;51.502;7.446;2022-08-04T01:39:02;8.93;;;2.75;;
68072;SDS011;54862;51.502;7.446;2022-08-04T01:41:49;7.13;;;2.75;;
68072;SDS011;54862;51.502;7.446;2022-08-04T01:44:16;5.93;;;2.30;;
68072;SDS011;54862;51.502;7.446;2022-08-04T01:46:44;7.43;;;2.30;;
68072;SDS011;54862;51.502;7.446;2022-08-04T01:49:10;7.28;;;2.40;;
68072;SDS011;54862;51.502;7.446;2022-08-04T01:51:38;9.50;;;2.38;;
68072;SDS011;54862;51.502;7.446;2022-08-04T01:54:04;6.47;;;2.20;;
68072;SDS011;54862;51.502;7.446;2022-08-04T01:56:31;10.65;;;2.90;;
68072;SDS011;54862;51.502;7.446;2022-08-04T01:58:57;8.10;;;2.60;;
68072;SDS011;54862;51.502;7.446;2022-08-04T02:01:24;10.25;;;2.47;;
68072;SDS011;54862;51.502;7.446;2022-08-04T02:03:50;3.90;;;1.98;;
68072;SDS011;54862;51.502;7.446;2022-08-04T02:09:35;11.57;;;2.22;;
68072;SDS011;54862;51.502;7.446;2022-08-04T02:11:40;4.70;;;2.30;;
68072;SDS011;54862;51.502;7.446;2022-08-04T02:14:17;5.43;;;2.30;;
68072;SDS011;54862;51.502;7.446;2022-08-04T02:17:09;6.93;;;2.40;;
68072;SDS011;54862;51.502;7.446;2022-08-04T02:19:37;9.07;;;2.63;;
68072;SDS011;54862;51.502;7.446;2022-08-04T02:22:15;6.22;;;2.75;;
68072;SDS011;54862;51.502;7.446;2022-08-04T02:24:44;6.22;;;2.53;;
68072;SDS011;54862;51.502;7.446;2022-08-04T02:27:11;4.82;;;2.50;;
68072;SDS011;54862;51.502;7.446;2022-08-04T02:30:20;7.30;;;2.63;;
68072;SDS011;54862;51.502;7.446;2022-08-04T02:32:28;6.32;;;2.40;;
68072;SDS011;54862;51.502;7.446;2022-08-04T02:37:35;6.85;;;2.63;;
68072;SDS011;54862;51.502;7.446;2022-08-04T02:40:03;6.88;;;2.53;;
68072;SDS011;54862;51.502;7.446;2022-08-04T02:42:30;5.82;;;2.38;;
68072;SDS011;54862;51.502;7.446;2022-08-04T02:44:57;5.18;;;2.20;;
68072;SDS011;54862;51.502;7.446;2022-08-04T02:47:24;6.43;;;2.50;;
68072;SDS011;54862;51.502;7.446;2022-08-04T02:49:51;5.85;;;2.53;;
68072;SDS011;54862;51.502;7.446;2022-08-04T02:52:17;10.27;;;2.60;;
68072;SDS011;54862;51.502;7.446;2022-08-04T02:54:43;5.40;;;2.60;;
68072;SDS011;54862;51.502;7.446;2022-08-04T02:57:12;7.40;;;2.60;;
68072;SDS011;54862;51.502;7.446;2022-08-04T03:05:18;6.03;;;2.50;;
68072;SDS011;54862;51.502;7.446;2022-08-04T03:25:30;7.50;;;2.88;;
68072;SDS011;54862;51.502;7.446;2022-08-04T03:33:15;9.02;;;2.90;;
68072;SDS011;54862;51.502;7.446;2022-08-04T03:43:35;6.82;;;3.00;;
68072;SDS011;54862;51.502;7.446;2022-08-04T03:57:12;8.07;;;2.93;;
68072;SDS011;54862;51.502;7.446;2022-08-04T03:59:48;7.78;;;3.00;;
68072;SDS011;54862;51.502;7.446;2022-08-04T04:13:56;6.88;;;2.97;;
68072;SDS011;54862;51.502;7.446;2022-08-04T04:23:51;6.95;;;3.00;;
68072;SDS011;54862;51.502;7.446;2022-08-04T04:31:41;9.75;;;3.00;;
68072;SDS011;54862;51.502;7.446;2022-08-04T04:39:19;8.65;;;3.10;;
68072;SDS011;54862;51.502;7.446;2022-08-04T04:41:59;8.18;;;3.15;;
68072;SDS011;54862;51.502;7.446;2022-08-04T04:55:11;8.63;;;3.30;;
68072;SDS011;54862;51.502;7.446;2022-08-04T04:57:38;8.95;;;2.95;;
68072;SDS011;54862;51.502;7.446;2022-08-04T05:00:07;6.60;;;3.00;;
68072;SDS011;54862;51.502;7.446;2022-08-04T05:05:10;8.90;;;3.47;;
68072;SDS011;54862;51.502;7.446;2022-08-04T05:15:30;7.50;;;3.25;;
68072;SDS011;54862;51.502;7.446;2022-08-04T05:17:59;7.20;;;3.05;;
68072;SDS011;54862;51.502;7.446;2022-08-04T05:20:27;10.70;;;3.28;;
68072;SDS011;54862;51.502;7.446;2022-08-04T05:22:57;9.82;;;3.30;;
68072;SDS011;54862;51.502;7.446;2022-08-04T05:25:26;16.42;;;4.22;;
68072;SDS011;54862;51.502;7.446;2022-08-04T05:27:55;8.95;;;3.30;;
68072;SDS011;54862;51.502;7.446;2022-08-04T05:30:22;7.00;;;3.22;;
68072;SDS011;54862;51.502;7.446;2022-08-04T05:32:54;7.05;;;3.28;;
68072;SDS011;54862;51.502;7.446;2022-08-04T05:35:23;10.13;;;3.83;;
68072;SDS011;54862;51.502;7.446;2022-08-04T05:37:52;11.60;;;3.80;;
68072;SDS011;54862;51.502;7.446;2022-08-04T05:40:19;8.20;;;3.88;;
68072;SDS011;54862;51.502;7.446;2022-08-04T05:42:46;7.07;;;3.38;;
68072;SDS011;54862;51.502;7.446;2022-08-04T05:45:12;8.05;;;3.38;;
68072;SDS011;54862;51.502;7.446;2022-08-04T05:47:38;9.55;;;3.45;;
68072;SDS011;54862;51.502;7.446;2022-08-04T05:50:04;10.95;;;3.67;;
68072;SDS011;54862;51.502;7.446;2022-08-04T05:52:31;8.38;;;3.40;;
68072;SDS011;54862;51.502;7.446;2022-08-04T05:54:58;9.65;;;3.67;;
68072;SDS011;54862;51.502;7.446;2022-08-04T05:57:24;10.13;;;3.90;;
68072;SDS011;54862;51.502;7.446;2022-08-04T05:59:51;10.93;;;3.47;;
68072;SDS011;54862;51.502;7.446;2022-08-04T06:02:19;8.07;;;3.30;;
68072;SDS011;54862;51.502;7.446;2022-08-04T06:04:47;9.65;;;4.05;;
68072;SDS011;54862;51.502;7.446;2022-08-04T06:07:14;10.63;;;3.65;;
68072;SDS011;54862;51.502;7.446;2022-08-04T06:09:40;9.77;;;4.28;;
68072;SDS011;54862;51.502;7.446;2022-08-04T06:12:08;11.10;;;4.15;;
68072;SDS011;54862;51.502;7.446;2022-08-04T06:14:39;8.25;;;3.78;;
68072;SDS011;54862;51.502;7.446;2022-08-04T06:17:07;10.10;;;4.10;;
68072;SDS011;54862;51.502;7.446;2022-08-04T06:19:34;10.80;;;4.00;;
68072;SDS011;54862;51.502;7.446;2022-08-04T06:22:01;12.25;;;4.28;;
68072;SDS011;54862;51.502;7.446;2022-08-04T06:24:28;13.25;;;4.28;;
68072;SDS011;54862;51.502;7.446;2022-08-04T06:26:55;9.15;;;3.67;;
68072;SDS011;54862;51.502;7.446;2022-08-04T06:29:21;9.43;;;3.75;;
68072;SDS011;54862;51.502;7.446;2022-08-04T06:31:56;9.13;;;3.70;;
68072;SDS011;54862;51.502;7.446;2022-08-04T06:34:22;8.60;;;3.58;;
68072;SDS011;54862;51.502;7.446;2022-08-04T06:36:48;11.20;;;3.53;;
68072;SDS011;54862;51.502;7.446;2022-08-04T06:39:15;9.15;;;3.47;;
68072;SDS011;54862;51.502;7.446;2022-08-04T06:41:41;11.95;;;3.42;;
68072;SDS011;54862;51.502;7.446;2022-08-04T06:44:09;8.80;;;3.42;;
68072;SDS011;54862;51.502;7.446;2022-08-04T06:46:36;8.20;;;3.63;;
68072;SDS011;54862;51.502;7.446;2022-08-04T06:49:02;10.82;;;3.33;;
68072;SDS011;54862;51.502;7.446;2022-08-04T06:51:29;7.88;;;3.28;;
68072;SDS011;54862;51.502;7.446;2022-08-04T06:53:56;10.23;;;3.30;;
68072;SDS011;54862;51.502;7.446;2022-08-04T06:56:22;9.32;;;3.47;;
68072;SDS011;54862;51.502;7.446;2022-08-04T06:58:49;10.02;;;3.58;;
68072;SDS011;54862;51.502;7.446;2022-08-04T07:01:20;6.55;;;3.30;;
68072;SDS011;54862;51.502;7.446;2022-08-04T07:03:47;6.30;;;3.03;;
68072;SDS011;54862;51.502;7.446;2022-08-04T07:06:13;6.60;;;3.22;;
68072;SDS011;54862;51.502;7.446;2022-08-04T07:08:39;7.95;;;3.13;;
68072;SDS011;54862;51.502;7.446;2022-08-04T07:11:05;11.15;;;3.47;;
68072;SDS011;54862;51.502;7.446;2022-08-04T07:13:32;6.90;;;3.00;;
68072;SDS011;54862;51.502;7.446;2022-08-04T07:15:58;7.28;;;3.15;;
68072;SDS011;54862;51.502;7.446;2022-08-04T07:18:24;7.65;;;2.80;;
68072;SDS011;54862;51.502;7.446;2022-08-04T07:20:51;8.32;;;3.17;;
68072;SDS011;54862;51.502;7.446;2022-08-04T07:23:21;8.50;;;3.30;;
68072;SDS011;54862;51.502;7.446;2022-08-04T07:25:54;8.32;;;3.20;;
68072;SDS011;54862;51.502;7.446;2022-08-04T07:28:22;9.23;;;3.17;;
68072;SDS011;54862;51.502;7.446;2022-08-04T07:30:48;7.22;;;2.90;;
68072;SDS011;54862;51.502;7.446;2022-08-04T07:33:15;6.90;;;2.85;;
68072;SDS011;54862;51.502;7.446;2022-08-04T07:35:41;7.22;;;3.28;;
68072;SDS011;54862;51.502;7.446;2022-08-04T07:38:07;7.20;;;2.90;;
68072;SDS011;54862;51.502;7.446;2022-08-04T07:40:36;7.15;;;2.90;;
68072;SDS011;54862;51.502;7.446;2022-08-04T07:43:02;8.30;;;3.42;;
68072;SDS011;54862;51.502;7.446;2022-08-04T07:45:28;8.10;;;3.13;;
68072;SDS011;54862;51.502;7.446;2022-08-04T07:47:55;7.53;;;3.35;;
68072;SDS011;54862;51.502;7.446;2022-08-04T07:50:21;7.28;;;3.10;;
68072;SDS011;54862;51.502;7.446;2022-08-04T07:52:48;6.95;;;2.90;;
68072;SDS011;54862;51.502;7.446;2022-08-04T07:55:14;6.47;;;2.90;;
68072;SDS011;54862;51.502;7.446;2022-08-04T07:57:40;6.55;;;2.67;;
68072;SDS011;54862;51.502;7.446;2022-08-04T08:00:07;7.18;;;3.20;;
68072;SDS011;54862;51.502;7.446;2022-08-04T08:02:33;8.70;;;3.10;;
68072;SDS011;54862;51.502;7.446;2022-08-04T08:05:00;6.18;;;3.17;;
68072;SDS011;54862;51.502;7.446;2022-08-04T08:07:26;7.05;;;3.15;;
68072;SDS011;54862;51.502;7.446;2022-08-04T08:09:52;5.80;;;2.70;;
68072;SDS011;54862;51.502;7.446;2022-08-04T08:12:18;7.20;;;3.05;;
68072;SDS011;54862;51.502;7.446;2022-08-04T08:14:44;6.03;;;2.75;;
68072;SDS011;54862;51.502;7.446;2022-08-04T08:17:10;6.53;;;3.17;;
68072;SDS011;54862;51.502;7.446;2022-08-04T08:19:37;5.90;;;2.88;;
68072;SDS011;54862;51.502;7.446;2022-08-04T08:22:03;7.90;;;2.83;;
68072;SDS011;54862;51.502;7.446;2022-08-04T08:24:30;5.90;;;2.83;;
68072;SDS011;54862;51.502;7.446;2022-08-04T08:26:56;4.97;;;2.70;;
68072;SDS011;54862;51.502;7.446;2022-08-04T08:29:24;5.65;;;2.80;;
68072;SDS011;54862;51.502;7.446;2022-08-04T08:31:50;6.25;;;2.90;;
68072;SDS011;54862;51.502;7.446;2022-08-04T08:34:16;13.02;;;3.50;;
68072;SDS011;54862;51.502;7.446;2022-08-04T08:36:45;5.07;;;2.50;;
68072;SDS011;54862;51.502;7.446;2022-08-04T08:39:16;5.55;;;2.50;;
68072;SDS011;54862;51.502;7.446;2022-08-04T08:44:33;5.68;;;2.53;;
68072;SDS011;54862;51.502;7.446;2022-08-04T08:49:55;6.50;;;3.10;;
68072;SDS011;54862;51.502;7.446;2022-08-04T08:57:34;6.25;;;2.72;;
68072;SDS011;54862;51.502;7.446;2022-08-04T09:00:15;5.22;;;3.08;;
68072;SDS011;54862;51.502;7.446;2022-08-04T09:08:10;4.93;;;2.72;;
68072;SDS011;54862;51.502;7.446;2022-08-04T09:10:44;7.88;;;2.70;;
68072;SDS011;54862;51.502;7.446;2022-08-04T09:15:58;5.30;;;2.55;;
68072;SDS011;54862;51.502;7.446;2022-08-04T09:21:09;6.75;;;3.13;;
68072;SDS011;54862;51.502;7.446;2022-08-04T09:28:34;7.75;;;2.35;;
68072;SDS011;54862;51.502;7.446;2022-08-04T09:31:10;5.03;;;2.40;;
68072;SDS011;54862;51.502;7.446;2022-08-04T09:33:43;5.53;;;2.60;;
68072;SDS011;54862;51.502;7.446;2022-08-04T09:36:14;3.35;;;2.50;;
68072;SDS011;54862;51.502;7.446;2022-08-04T09:38:59;7.00;;;2.33;;
68072;SDS011;54862;51.502;7.446;2022-08-04T09:46:41;2.95;;;2.00;;
68072;SDS011;54862;51.502;7.446;2022-08-04T09:49:11;3.47;;;2.13;;
68072;SDS011;54862;51.502;7.446;2022-08-04T09:54:22;6.07;;;2.47;;
68072;SDS011;54862;51.502;7.446;2022-08-04T09:59:28;4.55;;;1.83;;
68072;SDS011;54862;51.502;7.446;2022-08-04T10:01:56;3.67;;;2.15;;
68072;SDS011;54862;51.502;7.446;2022-08-04T10:04:23;5.15;;;2.10;;
68072;SDS011;54862;51.502;7.446;2022-08-04T10:19:39;3.47;;;2.03;;
68072;SDS011;54862;51.502;7.446;2022-08-04T10:27:13;2.80;;;1.90;;
68072;SDS011;54862;51.502;7.446;2022-08-04T10:29:45;4.05;;;1.95;;
68072;SDS011;54862;51.502;7.446;2022-08-04T10:32:20;3.10;;;1.95;;
68072;SDS011;54862;51.502;7.446;2022-08-04T10:37:23;4.63;;;1.98;;
68072;SDS011;54862;51.502;7.446;2022-08-04T10:40:04;5.38;;;2.30;;
68072;SDS011;54862;51.502;7.446;2022-08-04T10:45:37;4.88;;;2.03;;
68072;SDS011;54862;51.502;7.446;2022-08-04T10:48:08;6.72;;;2.03;;
68072;SDS011;54862;51.502;7.446;2022-08-04T10:50:37;5.50;;;2.10;;
68072;SDS011;54862;51.502;7.446;2022-08-04T10:53:06;8.93;;;2.35;;
68072;SDS011;54862;51.502;7.446;2022-08-04T10:55:35;4.55;;;2.00;;
68072;SDS011;54862;51.502;7.446;2022-08-04T10:58:05;4.85;;;2.25;;
68072;SDS011;54862;51.502;7.446;2022-08-04T11:00:35;5.40;;;2.28;;
68072;SDS011;54862;51.502;7.446;2022-08-04T11:08:13;8.02;;;2.05;;
68072;SDS011;54862;51.502;7.446;2022-08-04T11:13:33;5.43;;;2.22;;
68072;SDS011;54862;51.502;7.446;2022-08-04T11:16:01;3.42;;;1.98;;
68072;SDS011;54862;51.502;7.446;2022-08-04T11:18:34;3.80;;;2.00;;
68072;SDS011;54862;51.502;7.446;2022-08-04T11:21:16;6.22;;;2.00;;
68072;SDS011;54862;51.502;7.446;2022-08-04T11:23:46;6.03;;;2.10;;
68072;SDS011;54862;51.502;7.446;2022-08-04T11:26:15;6.38;;;2.38;;
68072;SDS011;54862;51.502;7.446;2022-08-04T11:31:11;6.20;;;2.20;;
68072;SDS011;54862;51.502;7.446;2022-08-04T11:33:41;5.72;;;2.08;;
68072;SDS011;54862;51.502;7.446;2022-08-04T11:36:23;6.43;;;2.20;;
68072;SDS011;54862;51.502;7.446;2022-08-04T11:44:11;6.80;;;2.55;;
68072;SDS011;54862;51.502;7.446;2022-08-04T11:46:42;4.85;;;2.50;;
68072;SDS011;54862;51.502;7.446;2022-08-04T11:51:46;6.18;;;2.40;;
68072;SDS011;54862;51.502;7.446;2022-08-04T11:54:13;5.35;;;2.20;;
68072;SDS011;54862;51.502;7.446;2022-08-04T11:56:40;8.52;;;2.70;;
68072;SDS011;54862;51.502;7.446;2022-08-04T11:59:06;7.78;;;2.60;;
68072;SDS011;54862;51.502;7.446;2022-08-04T12:04:24;6.72;;;2.88;;
68072;SDS011;54862;51.502;7.446;2022-08-04T12:09:33;7.35;;;2.40;;
68072;SDS011;54862;51.502;7.446;2022-08-04T12:12:11;6.00;;;2.78;;
68072;SDS011;54862;51.502;7.446;2022-08-04T12:14:54;7.40;;;2.40;;
68072;SDS011;54862;51.502;7.446;2022-08-04T12:20:07;6.25;;;2.63;;
68072;SDS011;54862;51.502;7.446;2022-08-04T12:22:39;5.85;;;2.50;;
68072;SDS011;54862;51.502;7.446;2022-08-04T12:25:07;8.00;;;2.70;;
68072;SDS011;54862;51.502;7.446;2022-08-04T12:27:43;6.32;;;2.50;;
68072;SDS011;54862;51.502;7.446;2022-08-04T12:30:11;7.65;;;2.60;;
68072;SDS011;54862;51.502;7.446;2022-08-04T12:32:38;11.70;;;2.70;;
68072;SDS011;54862;51.502;7.446;2022-08-04T12:35:08;6.90;;;2.80;;
68072;SDS011;54862;51.502;7.446;2022-08-04T12:40:24;8.80;;;2.85;;
68072;SDS011;54862;51.502;7.446;2022-08-04T12:42:56;10.70;;;2.55;;
68072;SDS011;54862;51.502;7.446;2022-08-04T12:45:26;8.43;;;2.65;;
68072;SDS011;54862;51.502;7.446;2022-08-04T12:47:55;6.45;;;2.90;;
68072;SDS011;54862;51.502;7.446;2022-08-04T12:50:22;7.15;;;2.38;;
68072;SDS011;54862;51.502;7.446;2022-08-04T12:52:53;6.07;;;2.40;;
68072;SDS011;54862;51.502;7.446;2022-08-04T12:55:20;9.03;;;3.10;;
68072;SDS011;54862;51.502;7.446;2022-08-04T12:57:48;5.90;;;2.45;;
68072;SDS011;54862;51.502;7.446;2022-08-04T13:00:33;6.97;;;2.45;;
68072;SDS011;54862;51.502;7.446;2022-08-04T13:03:03;5.93;;;2.50;;
68072;SDS011;54862;51.502;7.446;2022-08-04T13:05:30;5.85;;;2.70;;
68072;SDS011;54862;51.502;7.446;2022-08-04T13:07:57;5.45;;;2.63;;
68072;SDS011;54862;51.502;7.446;2022-08-04T13:10:24;6.35;;;2.83;;
68072;SDS011;54862;51.502;7.446;2022-08-04T13:12:51;10.50;;;2.72;;
68072;SDS011;54862;51.502;7.446;2022-08-04T13:15:20;7.18;;;2.50;;
68072;SDS011;54862;51.502;7.446;2022-08-04T13:17:50;9.98;;;2.85;;
68072;SDS011;54862;51.502;7.446;2022-08-04T13:20:24;5.13;;;2.53;;
68072;SDS011;54862;51.502;7.446;2022-08-04T13:22:51;6.55;;;2.80;;
68072;SDS011;54862;51.502;7.446;2022-08-04T13:25:25;10.43;;;2.80;;
68072;SDS011;54862;51.502;7.446;2022-08-04T13:27:51;9.73;;;3.00;;
68072;SDS011;54862;51.502;7.446;2022-08-04T13:30:17;12.63;;;3.13;;
68072;SDS011;54862;51.502;7.446;2022-08-04T13:32:44;9.40;;;2.63;;
68072;SDS011;54862;51.502;7.446;2022-08-04T13:35:10;7.93;;;2.97;;
68072;SDS011;54862;51.502;7.446;2022-08-04T13:37:37;7.93;;;2.67;;
68072;SDS011;54862;51.502;7.446;2022-08-04T13:40:04;7.30;;;2.63;;
68072;SDS011;54862;51.502;7.446;2022-08-04T13:42:32;12.15;;;3.08;;
68072;SDS011;54862;51.502;7.446;2022-08-04T13:44:59;6.47;;;2.67;;
68072;SDS011;54862;51.502;7.446;2022-08-04T13:47:32;9.48;;;3.42;;
68072;SDS011;54862;51.502;7.446;2022-08-04T13:50:15;9.48;;;3.40;;
68072;SDS011;54862;51.502;7.446;2022-08-04T13:52:42;8.73;;;2.83;;
68072;SDS011;54862;51.502;7.446;2022-08-04T13:55:22;10.73;;;2.90;;
68072;SDS011;54862;51.502;7.446;2022-08-04T13:57:50;8.55;;;3.08;;
68072;SDS011;54862;51.502;7.446;2022-08-04T14:00:17;8.77;;;3.08;;
68072;SDS011;54862;51.502;7.446;2022-08-04T14:02:55;8.95;;;3.05;;
68072;SDS011;54862;51.502;7.446;2022-08-04T14:05:24;7.50;;;2.95;;
68072;SDS011;54862;51.502;7.446;2022-08-04T14:07:54;8.48;;;3.50;;
68072;SDS011;54862;51.502;7.446;2022-08-04T14:10:22;6.18;;;2.70;;
68072;SDS011;54862;51.502;7.446;2022-08-04T14:12:49;9.10;;;3.08;;
68072;SDS011;54862;51.502;7.446;2022-08-04T14:18:20;11.80;;;3.22;;
68072;SDS011;54862;51.502;7.446;2022-08-04T14:21:00;8.52;;;3.00;;
68072;SDS011;54862;51.502;7.446;2022-08-04T14:23:27;8.32;;;3.22;;
68072;SDS011;54862;51.502;7.446;2022-08-04T14:25:53;9.35;;;3.28;;
68072;SDS011;54862;51.502;7.446;2022-08-04T14:28:29;10.02;;;3.20;;
68072;SDS011;54862;51.502;7.446;2022-08-04T14:31:29;9.10;;;3.30;;
68072;SDS011;54862;51.502;7.446;2022-08-04T14:33:48;9.43;;;3.15;;
68072;SDS011;54862;51.502;7.446;2022-08-04T14:36:15;8.95;;;3.28;;
68072;SDS011;54862;51.502;7.446;2022-08-04T14:41:07;7.50;;;3.35;;
68072;SDS011;54862;51.502;7.446;2022-08-04T14:43:39;11.80;;;3.53;;
68072;SDS011;54862;51.502;7.446;2022-08-04T14:46:05;10.32;;;3.47;;
68072;SDS011;54862;51.502;7.446;2022-08-04T14:48:31;9.32;;;3.25;;
68072;SDS011;54862;51.502;7.446;2022-08-04T14:50:57;7.43;;;3.08;;
68072;SDS011;54862;51.502;7.446;2022-08-04T14:53:24;9.15;;;3.20;;
68072;SDS011;54862;51.502;7.446;2022-08-04T14:55:54;8.10;;;3.13;;
68072;SDS011;54862;51.502;7.446;2022-08-04T14:58:27;6.43;;;3.03;;
68072;SDS011;54862;51.502;7.446;2022-08-04T15:00:57;10.18;;;3.35;;
68072;SDS011;54862;51.502;7.446;2022-08-04T15:03:23;9.80;;;3.28;;
68072;SDS011;54862;51.502;7.446;2022-08-04T15:05:50;9.68;;;3.13;;
68072;SDS011;54862;51.502;7.446;2022-08-04T15:08:17;7.70;;;3.35;;
68072;SDS011;54862;51.502;7.446;2022-08-04T15:10:43;10.23;;;3.30;;
68072;SDS011;54862;51.502;7.446;2022-08-04T15:13:10;7.13;;;2.90;;
68072;SDS011;54862;51.502;7.446;2022-08-04T15:15:38;6.55;;;2.90;;
68072;SDS011;54862;51.502;7.446;2022-08-04T15:18:10;7.13;;;3.03;;
68072;SDS011;54862;51.502;7.446;2022-08-04T15:20:37;8.20;;;2.85;;
68072;SDS011;54862;51.502;7.446;2022-08-04T15:23:06;7.30;;;3.33;;
68072;SDS011;54862;51.502;7.446;2022-08-04T15:25:36;9.05;;;3.13;;
68072;SDS011;54862;51.502;7.446;2022-08-04T15:28:02;7.80;;;3.10;;
68072;SDS011;54862;51.502;7.446;2022-08-04T15:30:29;9.40;;;3.00;;
68072;SDS011;54862;51.502;7.446;2022-08-04T15:32:56;10.73;;;3.30;;
68072;SDS011;54862;51.502;7.446;2022-08-04T15:35:24;9.68;;;3.15;;
68072;SDS011;54862;51.502;7.446;2022-08-04T15:37:58;9.45;;;3.00;;
68072;SDS011;54862;51.502;7.446;2022-08-04T15:43:26;8.73;;;3.10;;
68072;SDS011;54862;51.502;7.446;2022-08-04T15:45:56;8.30;;;3.40;;
68072;SDS011;54862;51.502;7.446;2022-08-04T15:48:24;11.68;;;2.92;;
68072;SDS011;54862;51.502;7.446;2022-08-04T15:56:53;7.22;;;3.13;;
68072;SDS011;54862;51.502;7.446;2022-08-04T15:59:00;6.85;;;2.92;;
68072;SDS011;54862;51.502;7.446;2022-08-04T16:01:26;9.35;;;2.85;;
68072;SDS011;54862;51.502;7.446;2022-08-04T16:03:52;6.20;;;3.20;;
68072;SDS011;54862;51.502;7.446;2022-08-04T16:11:26;8.00;;;3.10;;
68072;SDS011;54862;51.502;7.446;2022-08-04T16:19:09;8.32;;;3.20;;
68072;SDS011;54862;51.502;7.446;2022-08-04T16:21:47;6.45;;;2.78;;
68072;SDS011;54862;51.502;7.446;2022-08-04T16:24:17;5.57;;;2.60;;
68072;SDS011;54862;51.502;7.446;2022-08-04T16:26:45;6.50;;;2.70;;
68072;SDS011;54862;51.502;7.446;2022-08-04T16:34:35;6.47;;;2.65;;
68072;SDS011;54862;51.502;7.446;2022-08-04T16:37:02;7.70;;;2.58;;
68072;SDS011;54862;51.502;7.446;2022-08-04T16:39:28;12.60;;;3.03;;
68072;SDS011;54862;51.502;7.446;2022-08-04T16:41:54;5.82;;;2.45;;
68072;SDS011;54862;51.502;7.446;2022-08-04T16:44:30;9.02;;;2.67;;
68072;SDS011;54862;51.502;7.446;2022-08-04T16:46:58;8.77;;;2.90;;
68072;SDS011;54862;51.502;7.446;2022-08-04T16:49:25;6.57;;;2.50;;
68072;SDS011;54862;51.502;7.446;2022-08-04T16:51:51;5.07;;;2.58;;
68072;SDS011;54862;51.502;7.446;2022-08-04T16:54:17;8.30;;;2.50;;
68072;SDS011;54862;51.502;7.446;2022-08-04T16:56:44;6.20;;;2.80;;
68072;SDS011;54862;51.502;7.446;2022-08-04T16:59:11;5.28;;;2.45;;
68072;SDS011;54862;51.502;7.446;2022-08-04T17:01:44;6.95;;;2.50;;
68072;SDS011;54862;51.502;7.446;2022-08-04T17:04:11;6.10;;;2.80;;
68072;SDS011;54862;51.502;7.446;2022-08-04T17:06:41;6.50;;;2.97;;
68072;SDS011;54862;51.502;7.446;2022-08-04T17:09:11;8.70;;;2.83;;
68072;SDS011;54862;51.502;7.446;2022-08-04T17:11:38;5.88;;;2.80;;
68072;SDS011;54862;51.502;7.446;2022-08-04T17:14:04;6.45;;;3.03;;
68072;SDS011;54862;51.502;7.446;2022-08-04T17:16:30;7.40;;;2.50;;
68072;SDS011;54862;51.502;7.446;2022-08-04T17:18:57;5.38;;;2.50;;
68072;SDS011;54862;51.502;7.446;2022-08-04T17:21:24;5.07;;;2.75;;
68072;SDS011;54862;51.502;7.446;2022-08-04T17:23:51;9.40;;;2.65;;
68072;SDS011;54862;51.502;7.446;2022-08-04T17:26:20;7.60;;;2.70;;
68072;SDS011;54862;51.502;7.446;2022-08-04T17:28:47;6.82;;;2.63;;
68072;SDS011;54862;51.502;7.446;2022-08-04T17:31:13;6.22;;;2.75;;
68072;SDS011;54862;51.502;7.446;2022-08-04T17:33:43;6.05;;;2.65;;
68072;SDS011;54862;51.502;7.446;2022-08-04T17:36:10;6.03;;;2.63;;
68072;SDS011;54862;51.502;7.446;2022-08-04T17:38:38;5.85;;;2.88;;
68072;SDS011;54862;51.502;7.446;2022-08-04T17:41:08;8.57;;;2.70;;
68072;SDS011;54862;51.502;7.446;2022-08-04T17:46:13;4.95;;;2.45;;
68072;SDS011;54862;51.502;7.446;2022-08-04T17:48:43;6.32;;;2.65;;
68072;SDS011;54862;51.502;7.446;2022-08-04T17:51:13;6.90;;;3.00;;
68072;SDS011;54862;51.502;7.446;2022-08-04T17:53:39;6.72;;;2.70;;
68072;SDS011;54862;51.502;7.446;2022-08-04T17:56:05;5.80;;;2.80;;
68072;SDS011;54862;51.502;7.446;2022-08-04T17:58:31;4.57;;;2.42;;
68072;SDS011;54862;51.502;7.446;2022-08-04T18:01:01;6.03;;;2.65;;
68072;SDS011;54862;51.502;7.446;2022-08-04T18:03:27;5.85;;;2.70;;
68072;SDS011;54862;51.502;7.446;2022-08-04T18:05:54;7.22;;;2.65;;
68072;SDS011;54862;51.502;7.446;2022-08-04T18:08:24;6.43;;;2.55;;
68072;SDS011;54862;51.502;7.446;2022-08-04T18:10:53;6.90;;;2.70;;
68072;SDS011;54862;51.502;7.446;2022-08-04T18:13:19;5.22;;;2.25;;
68072;SDS011;54862;51.502;7.446;2022-08-04T18:15:45;5.30;;;2.65;;
68072;SDS011;54862;51.502;7.446;2022-08-04T18:18:18;6.50;;;2.78;;
68072;SDS011;54862;51.502;7.446;2022-08-04T18:20:45;5.65;;;2.60;;
68072;SDS011;54862;51.502;7.446;2022-08-04T18:23:11;4.95;;;2.40;;
68072;SDS011;54862;51.502;7.446;2022-08-04T18:25:37;6.55;;;2.70;;
68072;SDS011;54862;51.502;7.446;2022-08-04T18:28:04;8.43;;;3.10;;
68072;SDS011;54862;51.502;7.446;2022-08-04T18:30:34;8.43;;;3.20;;
68072;SDS011;54862;51.502;7.446;2022-08-04T18:33:01;9.85;;;3.03;;
68072;SDS011;54862;51.502;7.446;2022-08-04T18:35:28;7.00;;;2.80;;
68072;SDS011;54862;51.502;7.446;2022-08-04T18:37:54;6.40;;;2.80;;
68072;SDS011;54862;51.502;7.446;2022-08-04T18:40:20;8.10;;;2.60;;
68072;SDS011;54862;51.502;7.446;2022-08-04T18:42:46;7.43;;;2.90;;
68072;SDS011;54862;51.502;7.446;2022-08-04T18:45:12;5.70;;;2.90;;
68072;SDS011;54862;51.502;7.446;2022-08-04T18:47:39;7.82;;;2.95;;
68072;SDS011;54862;51.502;7.446;2022-08-04T18:50:05;6.60;;;2.83;;
68072;SDS011;54862;51.502;7.446;2022-08-04T18:52:31;8.70;;;2.78;;
68072;SDS011;54862;51.502;7.446;2022-08-04T18:54:57;10.13;;;3.30;;
68072;SDS011;54862;51.502;7.446;2022-08-04T18:57:24;7.15;;;2.78;;
68072;SDS011;54862;51.502;7.446;2022-08-04T18:59:52;7.78;;;3.10;;
68072;SDS011;54862;51.502;7.446;2022-08-04T19:02:21;9.52;;;2.80;;
68072;SDS011;54862;51.502;7.446;2022-08-04T19:04:47;8.45;;;3.00;;
68072;SDS011;54862;51.502;7.446;2022-08-04T19:07:14;7.60;;;3.25;;
68072;SDS011;54862;51.502;7.446;2022-08-04T19:09:41;8.27;;;3.10;;
68072;SDS011;54862;51.502;7.446;2022-08-04T19:12:07;7.72;;;3.10;;
68072;SDS011;54862;51.502;7.446;2022-08-04T19:14:33;10.25;;;4.30;;